Wilder, Minnesota
Current Conditions -  °F | °C
As of 4:33 AM on Wednesday 22 Oct 2014 (Local Time) from KMWM Reporting Station
Scattered Clouds Scattered Clouds  
Wind Chill: 40°   Ceiling: Unl
Heat Index: 46°   Visibility: 10mi
Dew Point: 39°   Wind: 14mph
Humidity: 76%   Direction: 150°SSE
Pressure: 30.1"   Gusts: 17mph
Location:  43.9264°N, 95.2282°W
Report Text: KMWM 220933Z AUTO 15012G15KT 10SM SCT065 08/04 A3010 RMK AO2
Loading
Personal Weather Stations






























Interactive Weather Map
Tropical Storm Tracking
New forecast layout! Learn more

10-Day Weather Forecast

Advertisements
Track Severe Weather on mobile